sensor_id;sensor_type;location;lat;lon;timestamp;P1;durP1;ratioP1;P2;durP2;ratioP2
42478;SDS011;28110;47.080;9.476;2023-06-10T00:00:54;4.70;;;4.23;;
42478;SDS011;28110;47.080;9.476;2023-06-10T00:03:20;6.93;;;4.68;;
42478;SDS011;28110;47.080;9.476;2023-06-10T00:05:48;5.93;;;4.10;;
42478;SDS011;28110;47.080;9.476;2023-06-10T00:08:14;4.53;;;3.83;;
42478;SDS011;28110;47.080;9.476;2023-06-10T00:10:44;5.65;;;4.32;;
42478;SDS011;28110;47.080;9.476;2023-06-10T00:13:10;7.73;;;4.10;;
42478;SDS011;28110;47.080;9.476;2023-06-10T00:15:36;4.53;;;3.70;;
42478;SDS011;28110;47.080;9.476;2023-06-10T00:18:03;5.20;;;3.80;;
42478;SDS011;28110;47.080;9.476;2023-06-10T00:20:29;6.65;;;4.10;;
42478;SDS011;28110;47.080;9.476;2023-06-10T00:22:56;6.15;;;4.00;;
42478;SDS011;28110;47.080;9.476;2023-06-10T00:25:24;8.90;;;4.77;;
42478;SDS011;28110;47.080;9.476;2023-06-10T00:27:50;5.57;;;4.07;;
42478;SDS011;28110;47.080;9.476;2023-06-10T00:30:16;6.40;;;4.00;;
42478;SDS011;28110;47.080;9.476;2023-06-10T00:32:42;6.43;;;3.77;;
42478;SDS011;28110;47.080;9.476;2023-06-10T00:35:07;5.00;;;3.93;;
42478;SDS011;28110;47.080;9.476;2023-06-10T00:37:33;5.63;;;3.80;;
42478;SDS011;28110;47.080;9.476;2023-06-10T00:40:00;6.72;;;4.47;;
42478;SDS011;28110;47.080;9.476;2023-06-10T00:42:27;7.53;;;4.28;;
42478;SDS011;28110;47.080;9.476;2023-06-10T00:44:53;5.60;;;4.10;;
42478;SDS011;28110;47.080;9.476;2023-06-10T00:47:19;5.35;;;4.07;;
42478;SDS011;28110;47.080;9.476;2023-06-10T00:49:45;7.10;;;4.20;;
42478;SDS011;28110;47.080;9.476;2023-06-10T00:52:12;5.90;;;3.97;;
42478;SDS011;28110;47.080;9.476;2023-06-10T00:54:40;6.38;;;3.95;;
42478;SDS011;28110;47.080;9.476;2023-06-10T00:57:06;6.55;;;4.22;;
42478;SDS011;28110;47.080;9.476;2023-06-10T00:59:32;4.40;;;3.30;;
42478;SDS011;28110;47.080;9.476;2023-06-10T01:01:58;4.53;;;3.78;;
42478;SDS011;28110;47.080;9.476;2023-06-10T01:04:24;6.73;;;4.13;;
42478;SDS011;28110;47.080;9.476;2023-06-10T01:12:12;4.32;;;3.53;;
42478;SDS011;28110;47.080;9.476;2023-06-10T01:14:59;6.93;;;3.80;;
42478;SDS011;28110;47.080;9.476;2023-06-10T01:17:26;4.05;;;3.30;;
42478;SDS011;28110;47.080;9.476;2023-06-10T01:19:56;4.90;;;3.80;;
42478;SDS011;28110;47.080;9.476;2023-06-10T01:22:23;4.60;;;3.30;;
42478;SDS011;28110;47.080;9.476;2023-06-10T01:24:50;4.00;;;3.50;;
42478;SDS011;28110;47.080;9.476;2023-06-10T01:27:17;5.83;;;3.90;;
42478;SDS011;28110;47.080;9.476;2023-06-10T01:29:49;5.63;;;3.95;;
42478;SDS011;28110;47.080;9.476;2023-06-10T01:32:32;4.75;;;3.33;;
42478;SDS011;28110;47.080;9.476;2023-06-10T01:35:01;6.18;;;3.50;;
42478;SDS011;28110;47.080;9.476;2023-06-10T01:37:28;5.53;;;3.47;;
42478;SDS011;28110;47.080;9.476;2023-06-10T01:39:57;5.20;;;3.30;;
42478;SDS011;28110;47.080;9.476;2023-06-10T01:42:24;4.05;;;3.05;;
42478;SDS011;28110;47.080;9.476;2023-06-10T01:44:50;4.07;;;3.50;;
42478;SDS011;28110;47.080;9.476;2023-06-10T01:47:16;4.70;;;3.40;;
42478;SDS011;28110;47.080;9.476;2023-06-10T01:49:41;4.53;;;3.83;;
42478;SDS011;28110;47.080;9.476;2023-06-10T01:52:07;4.77;;;3.37;;
42478;SDS011;28110;47.080;9.476;2023-06-10T01:54:33;4.70;;;3.55;;
42478;SDS011;28110;47.080;9.476;2023-06-10T01:57:00;5.35;;;3.60;;
42478;SDS011;28110;47.080;9.476;2023-06-10T01:59:26;4.88;;;3.70;;
42478;SDS011;28110;47.080;9.476;2023-06-10T02:01:52;4.73;;;3.73;;
42478;SDS011;28110;47.080;9.476;2023-06-10T02:04:17;4.57;;;3.40;;
42478;SDS011;28110;47.080;9.476;2023-06-10T02:06:43;4.30;;;3.30;;
42478;SDS011;28110;47.080;9.476;2023-06-10T02:09:09;5.87;;;3.80;;
42478;SDS011;28110;47.080;9.476;2023-06-10T02:11:34;4.80;;;4.03;;
42478;SDS011;28110;47.080;9.476;2023-06-10T02:14:00;4.20;;;3.25;;
42478;SDS011;28110;47.080;9.476;2023-06-10T02:16:25;4.63;;;3.50;;
42478;SDS011;28110;47.080;9.476;2023-06-10T02:18:51;5.82;;;3.75;;
42478;SDS011;28110;47.080;9.476;2023-06-10T02:21:17;6.37;;;3.73;;
42478;SDS011;28110;47.080;9.476;2023-06-10T02:23:42;6.47;;;3.80;;
42478;SDS011;28110;47.080;9.476;2023-06-10T02:26:08;4.15;;;3.20;;
42478;SDS011;28110;47.080;9.476;2023-06-10T02:28:33;6.80;;;3.73;;
42478;SDS011;28110;47.080;9.476;2023-06-10T02:30:59;5.55;;;3.80;;
42478;SDS011;28110;47.080;9.476;2023-06-10T02:33:25;5.60;;;4.13;;
42478;SDS011;28110;47.080;9.476;2023-06-10T02:35:52;4.97;;;4.00;;
42478;SDS011;28110;47.080;9.476;2023-06-10T02:38:17;5.32;;;4.40;;
42478;SDS011;28110;47.080;9.476;2023-06-10T02:40:43;6.57;;;3.90;;
42478;SDS011;28110;47.080;9.476;2023-06-10T02:43:09;4.50;;;3.87;;
42478;SDS011;28110;47.080;9.476;2023-06-10T02:45:34;6.47;;;4.40;;
42478;SDS011;28110;47.080;9.476;2023-06-10T02:48:00;6.00;;;3.90;;
42478;SDS011;28110;47.080;9.476;2023-06-10T02:50:26;4.80;;;4.00;;
42478;SDS011;28110;47.080;9.476;2023-06-10T02:52:51;4.73;;;4.23;;
42478;SDS011;28110;47.080;9.476;2023-06-10T02:55:17;7.93;;;4.47;;
42478;SDS011;28110;47.080;9.476;2023-06-10T02:57:42;8.52;;;4.22;;
42478;SDS011;28110;47.080;9.476;2023-06-10T03:00:08;5.30;;;4.07;;
42478;SDS011;28110;47.080;9.476;2023-06-10T03:02:39;6.63;;;4.20;;
42478;SDS011;28110;47.080;9.476;2023-06-10T03:05:04;4.67;;;3.90;;
42478;SDS011;28110;47.080;9.476;2023-06-10T03:07:34;5.82;;;3.70;;
42478;SDS011;28110;47.080;9.476;2023-06-10T03:10:00;5.05;;;4.10;;
42478;SDS011;28110;47.080;9.476;2023-06-10T03:12:26;5.47;;;3.87;;
42478;SDS011;28110;47.080;9.476;2023-06-10T03:14:52;7.50;;;4.33;;
42478;SDS011;28110;47.080;9.476;2023-06-10T03:17:17;6.22;;;3.80;;
42478;SDS011;28110;47.080;9.476;2023-06-10T03:19:43;4.27;;;3.50;;
42478;SDS011;28110;47.080;9.476;2023-06-10T03:22:09;6.20;;;3.53;;
42478;SDS011;28110;47.080;9.476;2023-06-10T03:24:36;5.60;;;3.90;;
42478;SDS011;28110;47.080;9.476;2023-06-10T03:27:07;4.07;;;3.65;;
42478;SDS011;28110;47.080;9.476;2023-06-10T03:29:33;5.95;;;4.20;;
42478;SDS011;28110;47.080;9.476;2023-06-10T03:31:59;5.40;;;3.80;;
42478;SDS011;28110;47.080;9.476;2023-06-10T03:34:25;3.67;;;3.20;;
42478;SDS011;28110;47.080;9.476;2023-06-10T03:36:50;5.13;;;4.07;;
42478;SDS011;28110;47.080;9.476;2023-06-10T03:39:16;6.90;;;4.38;;
42478;SDS011;28110;47.080;9.476;2023-06-10T03:41:41;5.40;;;4.40;;
42478;SDS011;28110;47.080;9.476;2023-06-10T03:44:07;7.30;;;4.90;;
42478;SDS011;28110;47.080;9.476;2023-06-10T03:46:32;8.82;;;5.28;;
42478;SDS011;28110;47.080;9.476;2023-06-10T03:48:58;5.73;;;5.00;;
42478;SDS011;28110;47.080;9.476;2023-06-10T03:51:25;6.78;;;5.50;;
42478;SDS011;28110;47.080;9.476;2023-06-10T03:53:51;8.07;;;5.20;;
42478;SDS011;28110;47.080;9.476;2023-06-10T03:56:17;6.27;;;5.60;;
42478;SDS011;28110;47.080;9.476;2023-06-10T03:58:42;7.63;;;5.30;;
42478;SDS011;28110;47.080;9.476;2023-06-10T04:01:08;8.43;;;5.55;;
42478;SDS011;28110;47.080;9.476;2023-06-10T04:03:34;7.30;;;6.00;;
42478;SDS011;28110;47.080;9.476;2023-06-10T04:05:59;9.65;;;6.03;;
42478;SDS011;28110;47.080;9.476;2023-06-10T04:08:25;8.73;;;5.83;;
42478;SDS011;28110;47.080;9.476;2023-06-10T04:10:50;8.50;;;6.33;;
42478;SDS011;28110;47.080;9.476;2023-06-10T04:13:16;7.28;;;5.35;;
42478;SDS011;28110;47.080;9.476;2023-06-10T04:15:42;8.80;;;5.60;;
42478;SDS011;28110;47.080;9.476;2023-06-10T04:18:08;6.80;;;5.40;;
42478;SDS011;28110;47.080;9.476;2023-06-10T04:20:33;6.10;;;4.87;;
42478;SDS011;28110;47.080;9.476;2023-06-10T04:22:59;9.88;;;5.40;;
42478;SDS011;28110;47.080;9.476;2023-06-10T04:25:24;12.93;;;5.77;;
42478;SDS011;28110;47.080;9.476;2023-06-10T04:27:51;8.40;;;5.82;;
42478;SDS011;28110;47.080;9.476;2023-06-10T04:30:16;7.90;;;6.00;;
42478;SDS011;28110;47.080;9.476;2023-06-10T04:32:43;9.25;;;5.55;;
42478;SDS011;28110;47.080;9.476;2023-06-10T04:35:11;6.13;;;4.93;;
42478;SDS011;28110;47.080;9.476;2023-06-10T04:37:37;7.83;;;5.50;;
42478;SDS011;28110;47.080;9.476;2023-06-10T04:40:03;6.82;;;4.65;;
42478;SDS011;28110;47.080;9.476;2023-06-10T04:42:30;8.80;;;5.72;;
42478;SDS011;28110;47.080;9.476;2023-06-10T04:44:56;7.50;;;5.77;;
42478;SDS011;28110;47.080;9.476;2023-06-10T04:47:21;10.90;;;5.60;;
42478;SDS011;28110;47.080;9.476;2023-06-10T04:49:47;15.37;;;5.97;;
42478;SDS011;28110;47.080;9.476;2023-06-10T04:52:12;9.07;;;5.70;;
42478;SDS011;28110;47.080;9.476;2023-06-10T04:54:39;7.72;;;5.90;;
42478;SDS011;28110;47.080;9.476;2023-06-10T04:57:04;13.05;;;5.75;;
42478;SDS011;28110;47.080;9.476;2023-06-10T04:59:32;7.63;;;5.50;;
42478;SDS011;28110;47.080;9.476;2023-06-10T05:01:58;9.53;;;5.63;;
42478;SDS011;28110;47.080;9.476;2023-06-10T05:04:24;10.25;;;5.70;;
42478;SDS011;28110;47.080;9.476;2023-06-10T05:06:49;11.03;;;6.37;;
42478;SDS011;28110;47.080;9.476;2023-06-10T05:09:15;14.93;;;5.77;;
42478;SDS011;28110;47.080;9.476;2023-06-10T05:11:40;8.52;;;6.32;;
42478;SDS011;28110;47.080;9.476;2023-06-10T05:14:06;8.07;;;6.10;;
42478;SDS011;28110;47.080;9.476;2023-06-10T05:16:32;9.20;;;6.85;;
42478;SDS011;28110;47.080;9.476;2023-06-10T05:18:57;10.73;;;6.33;;
42478;SDS011;28110;47.080;9.476;2023-06-10T05:21:23;10.27;;;6.50;;
42478;SDS011;28110;47.080;9.476;2023-06-10T05:23:48;11.38;;;6.53;;
42478;SDS011;28110;47.080;9.476;2023-06-10T05:26:14;9.57;;;6.40;;
42478;SDS011;28110;47.080;9.476;2023-06-10T05:28:40;8.30;;;6.07;;
42478;SDS011;28110;47.080;9.476;2023-06-10T05:31:06;9.53;;;6.37;;
42478;SDS011;28110;47.080;9.476;2023-06-10T05:33:31;7.35;;;6.00;;
42478;SDS011;28110;47.080;9.476;2023-06-10T05:35:57;9.27;;;6.03;;
42478;SDS011;28110;47.080;9.476;2023-06-10T05:38:22;10.93;;;6.27;;
42478;SDS011;28110;47.080;9.476;2023-06-10T05:40:48;9.02;;;6.35;;
42478;SDS011;28110;47.080;9.476;2023-06-10T05:43:13;10.10;;;6.13;;
42478;SDS011;28110;47.080;9.476;2023-06-10T05:45:41;9.60;;;5.97;;
42478;SDS011;28110;47.080;9.476;2023-06-10T05:48:07;12.37;;;6.10;;
42478;SDS011;28110;47.080;9.476;2023-06-10T05:50:33;9.97;;;6.20;;
42478;SDS011;28110;47.080;9.476;2023-06-10T05:53:03;8.65;;;5.68;;
42478;SDS011;28110;47.080;9.476;2023-06-10T05:55:29;8.77;;;6.50;;
42478;SDS011;28110;47.080;9.476;2023-06-10T05:58:01;11.70;;;6.37;;
42478;SDS011;28110;47.080;9.476;2023-06-10T06:00:26;7.53;;;6.28;;
42478;SDS011;28110;47.080;9.476;2023-06-10T06:02:52;10.10;;;5.97;;
42478;SDS011;28110;47.080;9.476;2023-06-10T06:05:19;8.38;;;5.97;;
42478;SDS011;28110;47.080;9.476;2023-06-10T06:07:44;9.95;;;6.25;;
42478;SDS011;28110;47.080;9.476;2023-06-10T06:10:10;9.47;;;6.70;;
42478;SDS011;28110;47.080;9.476;2023-06-10T06:12:36;7.33;;;6.30;;
42478;SDS011;28110;47.080;9.476;2023-06-10T06:15:01;8.95;;;5.95;;
42478;SDS011;28110;47.080;9.476;2023-06-10T06:17:27;7.87;;;6.30;;
42478;SDS011;28110;47.080;9.476;2023-06-10T06:19:52;7.23;;;6.07;;
42478;SDS011;28110;47.080;9.476;2023-06-10T06:22:18;9.80;;;6.40;;
42478;SDS011;28110;47.080;9.476;2023-06-10T06:24:46;12.57;;;6.80;;
42478;SDS011;28110;47.080;9.476;2023-06-10T06:27:12;10.38;;;7.43;;
42478;SDS011;28110;47.080;9.476;2023-06-10T06:29:37;10.83;;;6.80;;
42478;SDS011;28110;47.080;9.476;2023-06-10T06:32:03;9.50;;;7.30;;
42478;SDS011;28110;47.080;9.476;2023-06-10T06:34:29;7.70;;;6.70;;
42478;SDS011;28110;47.080;9.476;2023-06-10T06:36:54;6.68;;;5.68;;
42478;SDS011;28110;47.080;9.476;2023-06-10T06:39:20;6.73;;;6.03;;
42478;SDS011;28110;47.080;9.476;2023-06-10T06:41:45;8.97;;;6.13;;
42478;SDS011;28110;47.080;9.476;2023-06-10T06:44:11;8.13;;;6.43;;
42478;SDS011;28110;47.080;9.476;2023-06-10T06:46:36;8.93;;;6.00;;
42478;SDS011;28110;47.080;9.476;2023-06-10T06:49:02;9.50;;;6.27;;
42478;SDS011;28110;47.080;9.476;2023-06-10T06:51:27;8.43;;;6.30;;
42478;SDS011;28110;47.080;9.476;2023-06-10T06:53:53;8.57;;;6.55;;
42478;SDS011;28110;47.080;9.476;2023-06-10T06:56:21;12.00;;;6.30;;
42478;SDS011;28110;47.080;9.476;2023-06-10T06:58:47;8.83;;;6.90;;
42478;SDS011;28110;47.080;9.476;2023-06-10T07:01:12;8.80;;;6.40;;
42478;SDS011;28110;47.080;9.476;2023-06-10T07:03:38;7.70;;;6.30;;
42478;SDS011;28110;47.080;9.476;2023-06-10T07:06:03;10.15;;;6.97;;
42478;SDS011;28110;47.080;9.476;2023-06-10T07:08:29;8.60;;;6.78;;
42478;SDS011;28110;47.080;9.476;2023-06-10T07:10:55;8.07;;;6.10;;
42478;SDS011;28110;47.080;9.476;2023-06-10T07:13:21;8.63;;;6.77;;
42478;SDS011;28110;47.080;9.476;2023-06-10T07:15:46;10.07;;;6.30;;
42478;SDS011;28110;47.080;9.476;2023-06-10T07:18:12;7.73;;;6.40;;
42478;SDS011;28110;47.080;9.476;2023-06-10T07:20:37;13.90;;;6.93;;
42478;SDS011;28110;47.080;9.476;2023-06-10T07:23:03;8.67;;;7.20;;
42478;SDS011;28110;47.080;9.476;2023-06-10T07:25:28;7.77;;;6.50;;
42478;SDS011;28110;47.080;9.476;2023-06-10T07:27:54;10.40;;;6.90;;
42478;SDS011;28110;47.080;9.476;2023-06-10T07:30:20;10.95;;;7.38;;
42478;SDS011;28110;47.080;9.476;2023-06-10T07:32:45;8.80;;;7.17;;
42478;SDS011;28110;47.080;9.476;2023-06-10T07:35:11;10.30;;;6.87;;
42478;SDS011;28110;47.080;9.476;2023-06-10T07:37:37;10.45;;;7.20;;
42478;SDS011;28110;47.080;9.476;2023-06-10T07:40:02;11.15;;;6.93;;
42478;SDS011;28110;47.080;9.476;2023-06-10T07:42:28;9.20;;;6.77;;
42478;SDS011;28110;47.080;9.476;2023-06-10T07:44:54;8.65;;;6.32;;
42478;SDS011;28110;47.080;9.476;2023-06-10T07:47:19;10.47;;;6.80;;
42478;SDS011;28110;47.080;9.476;2023-06-10T07:49:45;8.70;;;6.60;;
42478;SDS011;28110;47.080;9.476;2023-06-10T07:52:10;10.10;;;6.18;;
42478;SDS011;28110;47.080;9.476;2023-06-10T07:54:36;11.23;;;6.90;;
42478;SDS011;28110;47.080;9.476;2023-06-10T07:57:01;11.30;;;7.17;;
42478;SDS011;28110;47.080;9.476;2023-06-10T07:59:27;13.45;;;7.60;;
42478;SDS011;28110;47.080;9.476;2023-06-10T08:01:53;10.00;;;7.47;;
42478;SDS011;28110;47.080;9.476;2023-06-10T08:04:18;9.98;;;7.10;;
42478;SDS011;28110;47.080;9.476;2023-06-10T08:06:44;8.57;;;6.57;;
42478;SDS011;28110;47.080;9.476;2023-06-10T08:09:09;9.68;;;6.68;;
42478;SDS011;28110;47.080;9.476;2023-06-10T08:11:35;8.90;;;7.10;;
42478;SDS011;28110;47.080;9.476;2023-06-10T08:14:01;9.27;;;7.37;;
42478;SDS011;28110;47.080;9.476;2023-06-10T08:16:27;7.82;;;6.30;;
42478;SDS011;28110;47.080;9.476;2023-06-10T08:18:52;8.63;;;7.10;;
42478;SDS011;28110;47.080;9.476;2023-06-10T08:21:18;9.48;;;7.10;;
42478;SDS011;28110;47.080;9.476;2023-06-10T08:23:44;12.40;;;7.38;;
42478;SDS011;28110;47.080;9.476;2023-06-10T08:26:09;7.97;;;7.00;;
42478;SDS011;28110;47.080;9.476;2023-06-10T08:28:35;9.32;;;7.32;;
42478;SDS011;28110;47.080;9.476;2023-06-10T08:31:01;9.67;;;7.43;;
42478;SDS011;28110;47.080;9.476;2023-06-10T08:33:26;9.30;;;7.80;;
42478;SDS011;28110;47.080;9.476;2023-06-10T08:35:52;7.68;;;6.88;;
42478;SDS011;28110;47.080;9.476;2023-06-10T08:38:17;8.40;;;6.90;;
42478;SDS011;28110;47.080;9.476;2023-06-10T08:40:43;8.80;;;7.03;;
42478;SDS011;28110;47.080;9.476;2023-06-10T08:43:17;10.85;;;7.10;;
42478;SDS011;28110;47.080;9.476;2023-06-10T08:46:01;10.57;;;7.13;;
42478;SDS011;28110;47.080;9.476;2023-06-10T08:48:30;9.30;;;7.63;;
42478;SDS011;28110;47.080;9.476;2023-06-10T08:50:58;10.10;;;7.47;;
42478;SDS011;28110;47.080;9.476;2023-06-10T08:53:25;16.15;;;7.50;;
42478;SDS011;28110;47.080;9.476;2023-06-10T08:55:54;11.25;;;7.80;;
42478;SDS011;28110;47.080;9.476;2023-06-10T08:58:23;9.53;;;7.03;;
42478;SDS011;28110;47.080;9.476;2023-06-10T09:00:50;8.13;;;6.95;;
42478;SDS011;28110;47.080;9.476;2023-06-10T09:03:16;7.80;;;6.80;;
42478;SDS011;28110;47.080;9.476;2023-06-10T09:05:43;10.80;;;7.68;;
42478;SDS011;28110;47.080;9.476;2023-06-10T09:08:09;9.53;;;7.60;;
42478;SDS011;28110;47.080;9.476;2023-06-10T09:10:35;8.75;;;7.22;;
42478;SDS011;28110;47.080;9.476;2023-06-10T09:13:01;8.67;;;7.53;;
42478;SDS011;28110;47.080;9.476;2023-06-10T09:15:26;9.73;;;7.05;;
42478;SDS011;28110;47.080;9.476;2023-06-10T09:17:52;9.50;;;7.20;;
42478;SDS011;28110;47.080;9.476;2023-06-10T09:20:18;11.20;;;7.22;;
42478;SDS011;28110;47.080;9.476;2023-06-10T09:22:44;8.43;;;6.97;;
42478;SDS011;28110;47.080;9.476;2023-06-10T09:25:10;8.50;;;6.70;;
42478;SDS011;28110;47.080;9.476;2023-06-10T09:27:43;9.35;;;7.28;;
42478;SDS011;28110;47.080;9.476;2023-06-10T09:30:26;9.23;;;7.70;;
42478;SDS011;28110;47.080;9.476;2023-06-10T09:32:53;9.97;;;7.63;;
42478;SDS011;28110;47.080;9.476;2023-06-10T09:35:23;9.82;;;8.02;;
42478;SDS011;28110;47.080;9.476;2023-06-10T09:37:53;8.77;;;7.10;;
42478;SDS011;28110;47.080;9.476;2023-06-10T09:40:19;8.00;;;7.20;;
42478;SDS011;28110;47.080;9.476;2023-06-10T09:42:45;14.43;;;7.60;;
42478;SDS011;28110;47.080;9.476;2023-06-10T09:45:14;10.20;;;7.40;;
42478;SDS011;28110;47.080;9.476;2023-06-10T09:47:39;8.43;;;7.43;;
42478;SDS011;28110;47.080;9.476;2023-06-10T09:50:05;9.40;;;7.85;;
42478;SDS011;28110;47.080;9.476;2023-06-10T09:52:30;9.70;;;8.37;;
42478;SDS011;28110;47.080;9.476;2023-06-10T09:55:00;11.70;;;8.18;;
42478;SDS011;28110;47.080;9.476;2023-06-10T09:57:30;13.90;;;8.48;;
42478;SDS011;28110;47.080;9.476;2023-06-10T09:59:57;9.60;;;8.30;;
42478;SDS011;28110;47.080;9.476;2023-06-10T10:02:23;9.48;;;8.35;;
42478;SDS011;28110;47.080;9.476;2023-06-10T10:04:48;11.17;;;8.53;;
42478;SDS011;28110;47.080;9.476;2023-06-10T10:07:14;11.55;;;8.50;;
42478;SDS011;28110;47.080;9.476;2023-06-10T10:09:40;11.00;;;8.27;;
42478;SDS011;28110;47.080;9.476;2023-06-10T10:12:15;10.43;;;9.32;;
42478;SDS011;28110;47.080;9.476;2023-06-10T10:14:45;10.65;;;9.00;;
42478;SDS011;28110;47.080;9.476;2023-06-10T10:17:11;17.47;;;9.87;;
42478;SDS011;28110;47.080;9.476;2023-06-10T10:19:43;10.50;;;9.35;;
42478;SDS011;28110;47.080;9.476;2023-06-10T10:22:15;12.98;;;9.75;;
42478;SDS011;28110;47.080;9.476;2023-06-10T10:24:46;12.20;;;9.25;;
42478;SDS011;28110;47.080;9.476;2023-06-10T10:27:20;14.63;;;9.25;;
42478;SDS011;28110;47.080;9.476;2023-06-10T10:29:52;13.30;;;9.90;;
42478;SDS011;28110;47.080;9.476;2023-06-10T10:32:18;15.55;;;10.10;;
42478;SDS011;28110;47.080;9.476;2023-06-10T10:34:53;13.50;;;9.60;;
42478;SDS011;28110;47.080;9.476;2023-06-10T10:37:32;13.85;;;9.25;;
42478;SDS011;28110;47.080;9.476;2023-06-10T10:39:59;11.90;;;10.13;;
42478;SDS011;28110;47.080;9.476;2023-06-10T10:42:26;14.20;;;9.87;;
42478;SDS011;28110;47.080;9.476;2023-06-10T10:44:53;11.18;;;10.00;;
42478;SDS011;28110;47.080;9.476;2023-06-10T10:47:21;12.10;;;9.82;;
42478;SDS011;28110;47.080;9.476;2023-06-10T10:49:48;13.57;;;10.30;;
42478;SDS011;28110;47.080;9.476;2023-06-10T10:52:17;12.32;;;10.13;;
42478;SDS011;28110;47.080;9.476;2023-06-10T10:54:43;10.30;;;8.93;;
42478;SDS011;28110;47.080;9.476;2023-06-10T10:57:15;12.35;;;10.73;;
42478;SDS011;28110;47.080;9.476;2023-06-10T11:00:00;11.75;;;9.95;;
42478;SDS011;28110;47.080;9.476;2023-06-10T11:05:07;14.07;;;10.27;;
42478;SDS011;28110;47.080;9.476;2023-06-10T11:07:33;12.18;;;9.98;;
42478;SDS011;28110;47.080;9.476;2023-06-10T11:10:02;13.63;;;10.25;;
42478;SDS011;28110;47.080;9.476;2023-06-10T11:12:50;11.50;;;9.45;;
42478;SDS011;28110;47.080;9.476;2023-06-10T11:15:27;12.30;;;9.93;;
42478;SDS011;28110;47.080;9.476;2023-06-10T11:18:10;14.43;;;10.02;;
42478;SDS011;28110;47.080;9.476;2023-06-10T11:23:24;14.38;;;10.23;;
42478;SDS011;28110;47.080;9.476;2023-06-10T11:31:21;10.07;;;8.82;;
42478;SDS011;28110;47.080;9.476;2023-06-10T11:33:58;11.88;;;8.93;;
42478;SDS011;28110;47.080;9.476;2023-06-10T11:36:28;10.88;;;9.10;;
42478;SDS011;28110;47.080;9.476;2023-06-10T11:38:58;12.30;;;9.68;;
42478;SDS011;28110;47.080;9.476;2023-06-10T11:41:31;11.63;;;9.30;;
42478;SDS011;28110;47.080;9.476;2023-06-10T11:44:07;18.20;;;9.45;;
42478;SDS011;28110;47.080;9.476;2023-06-10T11:46:34;10.38;;;8.30;;
42478;SDS011;28110;47.080;9.476;2023-06-10T11:49:01;9.75;;;8.70;;
42478;SDS011;28110;47.080;9.476;2023-06-10T11:51:32;10.80;;;9.03;;
42478;SDS011;28110;47.080;9.476;2023-06-10T11:54:04;10.02;;;8.80;;
42478;SDS011;28110;47.080;9.476;2023-06-10T11:56:30;11.43;;;8.80;;
42478;SDS011;28110;47.080;9.476;2023-06-10T12:01:23;10.47;;;8.80;;
42478;SDS011;28110;47.080;9.476;2023-06-10T12:03:56;11.15;;;8.50;;
42478;SDS011;28110;47.080;9.476;2023-06-10T12:06:23;12.45;;;8.25;;
42478;SDS011;28110;47.080;9.476;2023-06-10T12:08:49;10.43;;;8.13;;
42478;SDS011;28110;47.080;9.476;2023-06-10T12:11:14;9.50;;;8.47;;
42478;SDS011;28110;47.080;9.476;2023-06-10T12:13:47;8.38;;;7.57;;
42478;SDS011;28110;47.080;9.476;2023-06-10T12:16:14;8.60;;;7.78;;
42478;SDS011;28110;47.080;9.476;2023-06-10T12:18:41;8.13;;;7.20;;
42478;SDS011;28110;47.080;9.476;2023-06-10T12:21:16;10.38;;;7.20;;
42478;SDS011;28110;47.080;9.476;2023-06-10T12:23:59;14.57;;;7.45;;
42478;SDS011;28110;47.080;9.476;2023-06-10T12:26:35;10.60;;;7.40;;
42478;SDS011;28110;47.080;9.476;2023-06-10T12:29:13;9.85;;;7.03;;
42478;SDS011;28110;47.080;9.476;2023-06-10T12:31:59;8.03;;;7.23;;
42478;SDS011;28110;47.080;9.476;2023-06-10T12:34:37;9.75;;;7.30;;
42478;SDS011;28110;47.080;9.476;2023-06-10T12:37:04;7.70;;;6.93;;
42478;SDS011;28110;47.080;9.476;2023-06-10T12:39:31;7.57;;;6.63;;
42478;SDS011;28110;47.080;9.476;2023-06-10T12:41:58;9.73;;;6.70;;
42478;SDS011;28110;47.080;9.476;2023-06-10T12:44:30;9.17;;;6.63;;
42478;SDS011;28110;47.080;9.476;2023-06-10T12:46:57;9.88;;;7.03;;
42478;SDS011;28110;47.080;9.476;2023-06-10T12:49:22;8.10;;;6.15;;
42478;SDS011;28110;47.080;9.476;2023-06-10T12:51:48;8.37;;;6.60;;
42478;SDS011;28110;47.080;9.476;2023-06-10T12:54:14;9.50;;;6.20;;
42478;SDS011;28110;47.080;9.476;2023-06-10T12:56:39;8.90;;;6.70;;
42478;SDS011;28110;47.080;9.476;2023-06-10T12:59:05;9.10;;;5.87;;
42478;SDS011;28110;47.080;9.476;2023-06-10T13:01:31;7.05;;;6.35;;
42478;SDS011;28110;47.080;9.476;2023-06-10T13:03:57;7.40;;;6.18;;
42478;SDS011;28110;47.080;9.476;2023-06-10T13:06:23;9.63;;;6.67;;
42478;SDS011;28110;47.080;9.476;2023-06-10T13:08:48;8.35;;;6.90;;
42478;SDS011;28110;47.080;9.476;2023-06-10T13:11:15;8.87;;;6.83;;
42478;SDS011;28110;47.080;9.476;2023-06-10T13:13:41;8.55;;;7.03;;
42478;SDS011;28110;47.080;9.476;2023-06-10T13:16:07;9.48;;;6.82;;
42478;SDS011;28110;47.080;9.476;2023-06-10T13:18:33;9.47;;;6.70;;
42478;SDS011;28110;47.080;9.476;2023-06-10T13:21:02;10.10;;;6.88;;
42478;SDS011;28110;47.080;9.476;2023-06-10T13:23:28;8.65;;;6.60;;
42478;SDS011;28110;47.080;9.476;2023-06-10T13:25:54;8.50;;;7.00;;
42478;SDS011;28110;47.080;9.476;2023-06-10T13:28:20;9.20;;;6.93;;
42478;SDS011;28110;47.080;9.476;2023-06-10T13:30:46;8.70;;;6.50;;
42478;SDS011;28110;47.080;9.476;2023-06-10T13:33:11;10.87;;;6.80;;
42478;SDS011;28110;47.080;9.476;2023-06-10T13:35:37;10.05;;;6.80;;
42478;SDS011;28110;47.080;9.476;2023-06-10T13:38:03;8.10;;;6.37;;
42478;SDS011;28110;47.080;9.476;2023-06-10T13:40:28;6.17;;;5.57;;
42478;SDS011;28110;47.080;9.476;2023-06-10T13:42:54;10.13;;;6.20;;
42478;SDS011;28110;47.080;9.476;2023-06-10T13:45:20;6.43;;;5.53;;
42478;SDS011;28110;47.080;9.476;2023-06-10T13:47:45;8.90;;;6.00;;
42478;SDS011;28110;47.080;9.476;2023-06-10T13:50:11;10.00;;;6.47;;
42478;SDS011;28110;47.080;9.476;2023-06-10T13:52:38;7.88;;;7.07;;
42478;SDS011;28110;47.080;9.476;2023-06-10T13:55:03;10.70;;;6.90;;
42478;SDS011;28110;47.080;9.476;2023-06-10T13:57:29;11.35;;;6.05;;
42478;SDS011;28110;47.080;9.476;2023-06-10T13:59:55;7.33;;;5.80;;
42478;SDS011;28110;47.080;9.476;2023-06-10T14:02:21;8.20;;;5.80;;
42478;SDS011;28110;47.080;9.476;2023-06-10T14:04:47;7.75;;;6.68;;
42478;SDS011;28110;47.080;9.476;2023-06-10T14:07:12;9.10;;;6.43;;
42478;SDS011;28110;47.080;9.476;2023-06-10T14:09:38;8.25;;;6.10;;
42478;SDS011;28110;47.080;9.476;2023-06-10T14:12:04;6.63;;;6.03;;
42478;SDS011;28110;47.080;9.476;2023-06-10T14:14:30;8.07;;;5.75;;
42478;SDS011;28110;47.080;9.476;2023-06-10T14:16:57;6.85;;;6.15;;
42478;SDS011;28110;47.080;9.476;2023-06-10T14:19:23;8.73;;;6.00;;
42478;SDS011;28110;47.080;9.476;2023-06-10T14:21:49;8.90;;;6.28;;
42478;SDS011;28110;47.080;9.476;2023-06-10T14:24:14;6.43;;;5.67;;
42478;SDS011;28110;47.080;9.476;2023-06-10T14:26:40;7.77;;;5.87;;
42478;SDS011;28110;47.080;9.476;2023-06-10T14:29:06;7.05;;;5.28;;
42478;SDS011;28110;47.080;9.476;2023-06-10T14:31:32;7.50;;;5.80;;
42478;SDS011;28110;47.080;9.476;2023-06-10T14:33:57;6.75;;;5.20;;
42478;SDS011;28110;47.080;9.476;2023-06-10T14:36:23;7.67;;;5.97;;
42478;SDS011;28110;47.080;9.476;2023-06-10T14:38:48;6.97;;;5.40;;
42478;SDS011;28110;47.080;9.476;2023-06-10T14:41:14;7.10;;;5.73;;
42478;SDS011;28110;47.080;9.476;2023-06-10T14:43:40;8.60;;;6.00;;
42478;SDS011;28110;47.080;9.476;2023-06-10T14:46:06;7.17;;;5.70;;
42478;SDS011;28110;47.080;9.476;2023-06-10T14:48:31;13.63;;;6.35;;
42478;SDS011;28110;47.080;9.476;2023-06-10T14:50:57;7.57;;;6.13;;
42478;SDS011;28110;47.080;9.476;2023-06-10T14:53:22;7.10;;;5.83;;
42478;SDS011;28110;47.080;9.476;2023-06-10T14:55:48;9.23;;;5.70;;
42478;SDS011;28110;47.080;9.476;2023-06-10T14:58:13;8.32;;;5.55;;
42478;SDS011;28110;47.080;9.476;2023-06-10T15:00:39;6.10;;;5.07;;